Time;durP1;ratioP1;P1;durP2;ratioP2;P2;SDS_P1;SDS_P2;PMS_P1;PMS_P2;Temp;Humidity;BMP_temperature;BMP_pressure;BME280_temperature;BME280_humidity;BME280_pressure;Samples;Min_cycle;Max_cycle;Signal;HPM_P1;HPM_P2
2021/12/24 00:02:17;;;;;;;;;;;;;;;;;;5027607;28;19921;-66
2021/12/24 00:04:43;;;;;;;;;;;;;;;;;;5028454;28;19923;-66
2021/12/24 00:07:09;;;;;;;;;;;;;;;;;;5026849;28;19925;-66
2021/12/24 00:09:37;;;;;;;;;;;;;;;;;;5027346;28;19924;-66
2021/12/24 00:12:10;;;;;;;;;;;;;;;;;;5027863;28;19940;-66
2021/12/24 00:14:36;;;;;;;;;;;;;;;;;;5010319;28;19921;-65
2021/12/24 00:17:05;;;;;;;;;;;;;;;;;;5027150;28;20395;-65
2021/12/24 00:35:33;;;;;;;;;;;;;;;;;;5027209;28;19921;-66
2021/12/24 00:38:03;;;;;;;;;;;;;;;;;;5009348;28;19921;-65
2021/12/24 00:40:29;;;;;;;;;;;;;;;;;;5026944;28;20366;-66
2021/12/24 00:42:55;;;;;;;;;;;;;;;;;;5027454;28;19921;-67
2021/12/24 00:45:21;;;;;;;;;;;;;;;;;;5027528;28;19921;-66
2021/12/24 00:47:47;;;;;;;;;;;;;;;;;;5026858;28;19928;-65
2021/12/24 00:50:16;;;;;;;;;;;;;;;;;;5010059;28;19923;-65
2021/12/24 00:55:26;;;;;;;;;;;;;;;;;;5026826;28;20341;-65
2021/12/24 00:57:52;;;;;;;;;;;;;;;;;;5027180;28;20370;-65
2021/12/24 01:00:18;;;;;;;;;;;;;;;;;;5025307;28;20017;-65
2021/12/24 01:02:44;;;;;;;;;;;;;;;;;;5027273;28;20296;-65
2021/12/24 01:05:10;;;;;;;;;;;;;;;;;;5027031;28;19932;-65
2021/12/24 01:07:36;;;;;;;;;;;;;;;;;;5025487;28;19920;-65
2021/12/24 01:10:02;;;;;;;;;;;;;;;;;;5026720;28;19982;-65
2021/12/24 01:12:28;;;;;;;;;;;;;;;;;;5026612;28;19921;-65
2021/12/24 01:14:54;;;;;;;;;;;;;;;;;;5026878;28;19928;-66
2021/12/24 01:17:33;;;;;;;;;;;;;;;;;;5026407;28;19925;-66
2021/12/24 01:20:06;;;;;;;;;;;;;;;;;;5026681;28;20550;-65
2021/12/24 01:23:18;;;;;;;;;;;;;;;;;;5025343;28;20067;-65
2021/12/24 01:25:37;;;;;;;;;;;;;;;;;;5026033;28;19972;-65
2021/12/24 01:28:35;;;;;;;;;;;;;;;;;;5026478;28;19917;-65
2021/12/24 01:39:21;;;;;;;;;;;;;;;;;;5026797;28;19921;-64
2021/12/24 01:44:32;;;;;;;;;;;;;;;;;;5007938;28;19917;-65
2021/12/24 01:46:58;;;;;;;;;;;;;;;;;;5007938;28;20543;-65
2021/12/24 01:49:24;;;;;;;;;;;;;;;;;;5025747;28;19913;-65
2021/12/24 01:51:50;;;;;;;;;;;;;;;;;;5025387;28;19928;-66
2021/12/24 01:54:16;;;;;;;;;;;;;;;;;;5025711;28;19913;-66
2021/12/24 01:56:42;;;;;;;;;;;;;;;;;;5026414;28;19921;-66
2021/12/24 01:59:08;;;;;;;;;;;;;;;;;;5025852;28;20272;-66
2021/12/24 02:01:34;;;;;;;;;;;;;;;;;;5025533;28;19929;-66
2021/12/24 02:04:00;;;;;;;;;;;;;;;;;;5025471;28;19925;-65
2021/12/24 02:06:26;;;;;;;;;;;;;;;;;;5024436;28;19990;-65
2021/12/24 02:08:52;;;;;;;;;;;;;;;;;;5025824;28;19928;-65
2021/12/24 02:11:18;;;;;;;;;;;;;;;;;;5042456;22;19921;-67
2021/12/24 02:13:44;;;;;;;;;;;;;;;;;;5044821;28;19966;-64
2021/12/24 02:16:33;;;;;;;;;;;;;;;;;;5046494;28;20297;-64
2021/12/24 02:29:59;;;;;;;;;;;;;;;;;;5045511;28;20016;-65
2021/12/24 02:32:25;;;;;;;;;;;;;;;;;;5044897;28;20369;-65
2021/12/24 02:34:51;;;;;;;;;;;;;;;;;;5045532;28;19920;-65
2021/12/24 02:37:17;;;;;;;;;;;;;;;;;;5044635;28;19925;-64
2021/12/24 02:39:43;;;;;;;;;;;;;;;;;;5045615;28;19929;-65
2021/12/24 02:42:09;;;;;;;;;;;;;;;;;;5045537;28;20008;-65
2021/12/24 02:44:35;;;;;;;;;;;;;;;;;;5045206;28;20015;-65
2021/12/24 02:54:57;;;;;;;;;;;;;;;;;;5045481;28;19959;-64
2021/12/24 02:57:27;;;;;;;;;;;;;;;;;;5045160;28;20399;-65
2021/12/24 03:00:05;;;;;;;;;;;;;;;;;;5044853;28;19975;-64
2021/12/24 03:02:31;;;;;;;;;;;;;;;;;;5045118;28;20410;-65
2021/12/24 03:04:57;;;;;;;;;;;;;;;;;;5045434;28;20018;-65
2021/12/24 03:07:23;;;;;;;;;;;;;;;;;;5044104;28;19920;-65
2021/12/24 03:09:49;;;;;;;;;;;;;;;;;;5045125;28;20468;-64
2021/12/24 03:12:16;;;;;;;;;;;;;;;;;;5044662;28;19920;-65
2021/12/24 03:14:42;;;;;;;;;;;;;;;;;;5044922;28;19927;-65
2021/12/24 03:17:12;;;;;;;;;;;;;;;;;;5027344;28;19923;-64
2021/12/24 03:19:38;;;;;;;;;;;;;;;;;;5045105;28;20403;-65
2021/12/24 03:24:49;;;;;;;;;;;;;;;;;;5048067;28;20332;-65
2021/12/24 03:27:15;;;;;;;;;;;;;;;;;;5030637;28;20419;-64
2021/12/24 03:29:41;;;;;;;;;;;;;;;;;;5048916;28;19927;-65
2021/12/24 03:32:07;;;;;;;;;;;;;;;;;;5031130;28;19921;-65
2021/12/24 03:34:33;;;;;;;;;;;;;;;;;;5048833;28;20330;-64
2021/12/24 03:36:59;;;;;;;;;;;;;;;;;;5047568;28;19951;-65
2021/12/24 03:39:25;;;;;;;;;;;;;;;;;;5048442;28;19928;-65
2021/12/24 03:41:51;;;;;;;;;;;;;;;;;;5030755;28;19967;-64
2021/12/24 03:44:19;;;;;;;;;;;;;;;;;;5048308;28;20012;-64
2021/12/24 03:49:29;;;;;;;;;;;;;;;;;;5049000;28;19920;-65
2021/12/24 03:52:02;;;;;;;;;;;;;;;;;;5046610;28;19921;-65
2021/12/24 03:57:15;;;;;;;;;;;;;;;;;;5028560;28;19917;-65
2021/12/24 03:59:41;;;;;;;;;;;;;;;;;;5028897;28;19921;-65
2021/12/24 04:02:07;;;;;;;;;;;;;;;;;;5028415;28;19921;-65
2021/12/24 04:04:33;;;;;;;;;;;;;;;;;;5027976;28;19921;-65
2021/12/24 04:06:59;;;;;;;;;;;;;;;;;;5027625;28;19924;-65
2021/12/24 04:09:28;;;;;;;;;;;;;;;;;;5028187;28;19928;-65
2021/12/24 04:11:55;;;;;;;;;;;;;;;;;;5027839;28;19927;-65
2021/12/24 04:14:21;;;;;;;;;;;;;;;;;;5027764;28;19925;-64
2021/12/24 04:16:47;;;;;;;;;;;;;;;;;;5028071;28;19927;-65
2021/12/24 04:19:25;;;;;;;;;;;;;;;;;;5028082;28;19991;-64
2021/12/24 04:24:56;;;;;;;;;;;;;;;;;;5027314;28;20011;-64
2021/12/24 04:27:22;;;;;;;;;;;;;;;;;;5027809;28;19921;-64
2021/12/24 04:29:48;;;;;;;;;;;;;;;;;;5027696;28;19913;-65
2021/12/24 04:32:25;;;;;;;;;;;;;;;;;;5028227;28;20325;-65
2021/12/24 04:34:53;;;;;;;;;;;;;;;;;;5027739;28;19917;-65
2021/12/24 04:39:51;;;;;;;;;;;;;;;;;;5027566;28;20455;-65
2021/12/24 05:01:13;;;;;;;;;;;;;;;;;;5026886;28;20370;-65
2021/12/24 05:01:48;;;;;;;;;;;;;;;;;;5026772;28;19921;-64
2021/12/24 05:04:15;;;;;;;;;;;;;;;;;;5027760;28;19923;-64
2021/12/24 05:06:52;;;;;;;;;;;;;;;;;;5026921;28;20029;-64
2021/12/24 05:09:23;;;;;;;;;;;;;;;;;;5026737;28;19964;-64
2021/12/24 05:11:49;;;;;;;;;;;;;;;;;;5027231;28;19929;-65
2021/12/24 05:14:15;;;;;;;;;;;;;;;;;;5026540;28;19921;-64
2021/12/24 05:16:48;;;;;;;;;;;;;;;;;;5027526;28;20337;-64
2021/12/24 05:21:58;;;;;;;;;;;;;;;;;;5026465;28;19972;-64
2021/12/24 05:24:24;;;;;;;;;;;;;;;;;;5026748;28;19913;-64
2021/12/24 05:26:50;;;;;;;;;;;;;;;;;;5027052;28;19928;-64
2021/12/24 05:29:16;;;;;;;;;;;;;;;;;;5026413;28;19912;-64
2021/12/24 05:31:42;;;;;;;;;;;;;;;;;;5027220;28;20286;-64
2021/12/24 05:34:08;;;;;;;;;;;;;;;;;;5026878;28;19921;-64
2021/12/24 05:36:34;;;;;;;;;;;;;;;;;;5025615;28;20579;-64
2021/12/24 05:39:00;;;;;;;;;;;;;;;;;;5026558;28;20027;-64
2021/12/24 05:41:26;;;;;;;;;;;;;;;;;;5026454;28;19928;-64
2021/12/24 05:43:52;;;;;;;;;;;;;;;;;;5026228;28;20294;-64
2021/12/24 05:46:18;;;;;;;;;;;;;;;;;;5025661;28;20264;-64
2021/12/24 05:48:44;;;;;;;;;;;;;;;;;;5026784;28;20416;-64
2021/12/24 05:51:10;;;;;;;;;;;;;;;;;;5026162;28;19951;-64
2021/12/24 05:53:36;;;;;;;;;;;;;;;;;;5025976;28;20471;-64
2021/12/24 05:56:02;;;;;;;;;;;;;;;;;;5026531;28;20448;-64
2021/12/24 05:58:28;;;;;;;;;;;;;;;;;;5026053;28;19921;-64
2021/12/24 06:00:54;;;;;;;;;;;;;;;;;;5025635;28;19925;-64
2021/12/24 06:03:21;;;;;;;;;;;;;;;;;;5025711;28;20337;-64
2021/12/24 06:05:47;;;;;;;;;;;;;;;;;;5024229;28;19921;-65
2021/12/24 06:08:13;;;;;;;;;;;;;;;;;;5025334;28;20396;-66
2021/12/24 06:10:39;;;;;;;;;;;;;;;;;;5007594;28;19975;-66
2021/12/24 06:13:05;;;;;;;;;;;;;;;;;;5024899;28;20594;-66
2021/12/24 06:15:41;;;;;;;;;;;;;;;;;;5022171;28;19922;-66
2021/12/24 06:18:12;;;;;;;;;;;;;;;;;;5024917;28;19928;-65
2021/12/24 06:20:38;;;;;;;;;;;;;;;;;;5024379;28;19983;-65
2021/12/24 06:23:07;;;;;;;;;;;;;;;;;;5024757;28;19954;-66
2021/12/24 06:25:33;;;;;;;;;;;;;;;;;;5025074;28;20431;-66
2021/12/24 06:27:59;;;;;;;;;;;;;;;;;;5025522;28;20429;-66
2021/12/24 06:30:29;;;;;;;;;;;;;;;;;;5025028;28;19975;-66
2021/12/24 06:32:55;;;;;;;;;;;;;;;;;;5025783;28;20007;-66
2021/12/24 06:35:21;;;;;;;;;;;;;;;;;;5024672;28;20012;-67
2021/12/24 06:37:47;;;;;;;;;;;;;;;;;;5025621;28;19921;-65
2021/12/24 06:40:13;;;;;;;;;;;;;;;;;;5025995;28;20007;-65
2021/12/24 06:42:39;;;;;;;;;;;;;;;;;;5025757;28;20357;-66
2021/12/24 06:45:05;;;;;;;;;;;;;;;;;;5025638;28;20477;-65
2021/12/24 06:47:31;;;;;;;;;;;;;;;;;;5025210;28;20019;-66
2021/12/24 06:49:57;;;;;;;;;;;;;;;;;;5025111;28;19929;-66
2021/12/24 06:52:23;;;;;;;;;;;;;;;;;;5024436;28;19925;-66
2021/12/24 06:54:49;;;;;;;;;;;;;;;;;;5024202;28;19932;-66
2021/12/24 06:57:18;;;;;;;;;;;;;;;;;;5024847;28;20378;-66
2021/12/24 06:59:44;;;;;;;;;;;;;;;;;;5029140;28;19921;-67
2021/12/24 07:02:10;;;;;;;;;;;;;;;;;;5028458;28;19921;-67
2021/12/24 07:04:36;;;;;;;;;;;;;;;;;;5028015;28;20290;-67
2021/12/24 07:07:02;;;;;;;;;;;;;;;;;;5028609;28;19921;-66
2021/12/24 07:09:28;;;;;;;;;;;;;;;;;;5028724;28;19948;-67
2021/12/24 07:11:54;;;;;;;;;;;;;;;;;;5028160;28;19927;-67
2021/12/24 07:14:22;;;;;;;;;;;;;;;;;;5028058;28;20007;-68
2021/12/24 07:16:48;;;;;;;;;;;;;;;;;;5028981;28;19940;-67
2021/12/24 07:19:14;;;;;;;;;;;;;;;;;;5028938;28;20043;-65
2021/12/24 07:21:41;;;;;;;;;;;;;;;;;;5026951;28;19984;-68
2021/12/24 07:24:07;;;;;;;;;;;;;;;;;;5023998;28;20072;-68
2021/12/24 07:26:33;;;;;;;;;;;;;;;;;;5032334;28;19991;-68
2021/12/24 07:28:59;;;;;;;;;;;;;;;;;;5028388;28;19921;-67
2021/12/24 07:31:25;;;;;;;;;;;;;;;;;;5043019;28;20738;-67
2021/12/24 07:33:51;;;;;;;;;;;;;;;;;;5030218;28;20428;-67
2021/12/24 07:36:17;;;;;;;;;;;;;;;;;;5033826;28;19916;-67
2021/12/24 07:38:43;;;;;;;;;;;;;;;;;;5020042;28;19922;-67
2021/12/24 07:41:10;;;;;;;;;;;;;;;;;;5028902;28;19932;-67
2021/12/24 07:43:36;;;;;;;;;;;;;;;;;;5026072;28;19968;-67
2021/12/24 07:46:02;;;;;;;;;;;;;;;;;;5028649;28;19921;-67
2021/12/24 07:48:30;;;;;;;;;;;;;;;;;;5028411;28;19920;-67
2021/12/24 07:53:23;;;;;;;;;;;;;;;;;;5023930;28;19921;-67
2021/12/24 07:55:49;;;;;;;;;;;;;;;;;;5033274;28;20011;-66
2021/12/24 07:58:16;;;;;;;;;;;;;;;;;;5032235;28;20393;-67
2021/12/24 08:00:42;;;;;;;;;;;;;;;;;;5039820;28;20771;-67
2021/12/24 08:03:08;;;;;;;;;;;;;;;;;;5031109;28;20329;-67
2021/12/24 08:05:35;;;;;;;;;;;;;;;;;;5042424;28;20047;-67
2021/12/24 08:08:01;;;;;;;;;;;;;;;;;;5030858;28;19920;-67
2021/12/24 08:10:27;;;;;;;;;;;;;;;;;;5027805;28;19921;-67
2021/12/24 08:12:53;;;;;;;;;;;;;;;;;;5026878;28;20504;-67
2021/12/24 08:15:19;;;;;;;;;;;;;;;;;;5014457;28;20039;-67
2021/12/24 08:17:45;;;;;;;;;;;;;;;;;;5018075;28;20068;-68
2021/12/24 08:20:11;;;;;;;;;;;;;;;;;;5018161;28;19925;-67
2021/12/24 08:22:37;;;;;;;;;;;;;;;;;;5019375;28;19924;-67
2021/12/24 08:25:05;;;;;;;;;;;;;;;;;;5016170;28;19924;-67
2021/12/24 08:27:31;;;;;;;;;;;;;;;;;;5015649;28;20390;-67
2021/12/24 08:29:57;;;;;;;;;;;;;;;;;;5021580;28;20299;-67
2021/12/24 08:32:23;;;;;;;;;;;;;;;;;;5020980;28;20517;-67
2021/12/24 08:34:52;;;;;;;;;;;;;;;;;;5019520;28;20403;-67
2021/12/24 08:37:18;;;;;;;;;;;;;;;;;;5018684;28;19925;-67
2021/12/24 08:39:44;;;;;;;;;;;;;;;;;;5022276;28;19927;-67
2021/12/24 08:42:10;;;;;;;;;;;;;;;;;;5016551;28;19921;-67
2021/12/24 08:44:37;;;;;;;;;;;;;;;;;;5023061;28;19917;-67
2021/12/24 08:47:04;;;;;;;;;;;;;;;;;;5023401;28;19925;-67
2021/12/24 08:49:30;;;;;;;;;;;;;;;;;;5017765;28;19924;-67
2021/12/24 08:51:56;;;;;;;;;;;;;;;;;;5013720;28;19925;-67
2021/12/24 08:54:24;;;;;;;;;;;;;;;;;;5021405;28;19921;-67
2021/12/24 08:56:50;;;;;;;;;;;;;;;;;;5018128;28;19921;-67
2021/12/24 08:59:16;;;;;;;;;;;;;;;;;;5016408;28;19925;-67
2021/12/24 09:01:43;;;;;;;;;;;;;;;;;;5015561;28;19947;-67
2021/12/24 09:04:09;;;;;;;;;;;;;;;;;;5022488;28;19932;-67
2021/12/24 09:06:35;;;;;;;;;;;;;;;;;;5020920;28;20180;-67
2021/12/24 09:09:01;;;;;;;;;;;;;;;;;;5021833;28;19921;-67
2021/12/24 09:11:27;;;;;;;;;;;;;;;;;;5021563;28;19965;-67
2021/12/24 09:13:53;;;;;;;;;;;;;;;;;;5022000;28;19932;-67
2021/12/24 09:16:19;;;;;;;;;;;;;;;;;;5017582;28;19925;-67
2021/12/24 09:18:48;;;;;;;;;;;;;;;;;;5015507;28;19969;-66
2021/12/24 09:21:17;;;;;;;;;;;;;;;;;;5012935;28;20378;-66
2021/12/24 09:23:46;;;;;;;;;;;;;;;;;;5017691;28;20019;-67
2021/12/24 09:26:12;;;;;;;;;;;;;;;;;;5015575;28;19925;-66
2021/12/24 09:28:38;;;;;;;;;;;;;;;;;;5017284;28;19928;-67
2021/12/24 09:31:04;;;;;;;;;;;;;;;;;;5018038;28;19921;-67
2021/12/24 09:33:30;;;;;;;;;;;;;;;;;;5015443;28;19926;-68
2021/12/24 09:35:56;;;;;;;;;;;;;;;;;;5003661;28;19929;-67
2021/12/24 09:38:22;;;;;;;;;;;;;;;;;;5012482;28;19925;-67
2021/12/24 09:40:48;;;;;;;;;;;;;;;;;;5017847;28;19925;-66
2021/12/24 09:43:14;;;;;;;;;;;;;;;;;;5018427;28;19925;-67
2021/12/24 09:45:40;;;;;;;;;;;;;;;;;;5018596;28;20401;-68
2021/12/24 09:48:06;;;;;;;;;;;;;;;;;;5018839;28;19925;-67
2021/12/24 09:50:32;;;;;;;;;;;;;;;;;;5010805;28;20449;-67
2021/12/24 09:52:58;;;;;;;;;;;;;;;;;;5019857;28;20020;-68
2021/12/24 09:55:24;;;;;;;;;;;;;;;;;;5018444;28;19972;-68
2021/12/24 09:57:50;;;;;;;;;;;;;;;;;;5022650;28;19916;-68
2021/12/24 10:00:16;;;;;;;;;;;;;;;;;;5022531;28;19925;-69
2021/12/24 10:02:44;;;;;;;;;;;;;;;;;;5021815;28;19925;-69
2021/12/24 10:05:10;;;;;;;;;;;;;;;;;;5019677;28;20356;-69
2021/12/24 10:07:36;;;;;;;;;;;;;;;;;;5016382;28;19925;-68
2021/12/24 10:10:02;;;;;;;;;;;;;;;;;;5000114;28;19925;-69
2021/12/24 10:12:28;;;;;;;;;;;;;;;;;;5017823;28;19921;-69
2021/12/24 10:14:56;;;;;;;;;;;;;;;;;;5015998;28;19929;-69
2021/12/24 10:17:22;;;;;;;;;;;;;;;;;;5018755;28;19917;-69
2021/12/24 10:19:49;;;;;;;;;;;;;;;;;;5020636;28;19939;-68
2021/12/24 10:22:15;;;;;;;;;;;;;;;;;;5021720;28;19925;-69
2021/12/24 10:24:41;;;;;;;;;;;;;;;;;;5022599;28;19933;-69
2021/12/24 10:27:07;;;;;;;;;;;;;;;;;;5021997;28;19979;-69
2021/12/24 10:29:33;;;;;;;;;;;;;;;;;;5018345;28;20471;-69
2021/12/24 10:31:59;;;;;;;;;;;;;;;;;;5015626;28;20413;-69
2021/12/24 10:34:25;;;;;;;;;;;;;;;;;;5016297;28;20319;-68
2021/12/24 10:36:52;;;;;;;;;;;;;;;;;;5014308;28;19925;-69
2021/12/24 10:39:18;;;;;;;;;;;;;;;;;;5017336;28;19926;-69
2021/12/24 10:41:44;;;;;;;;;;;;;;;;;;5014354;28;19932;-69
2021/12/24 10:44:10;;;;;;;;;;;;;;;;;;5021175;28;19925;-70
2021/12/24 10:46:36;;;;;;;;;;;;;;;;;;5020959;28;19925;-69
2021/12/24 10:49:06;;;;;;;;;;;;;;;;;;5020161;28;19925;-70
2021/12/24 10:54:18;;;;;;;;;;;;;;;;;;5020932;28;19929;-69
2021/12/24 10:56:44;;;;;;;;;;;;;;;;;;5016739;28;19947;-69
2021/12/24 10:59:12;;;;;;;;;;;;;;;;;;5016661;28;20438;-69
2021/12/24 11:01:38;;;;;;;;;;;;;;;;;;5019585;28;19956;-69
2021/12/24 11:04:04;;;;;;;;;;;;;;;;;;5019061;28;20030;-70
2021/12/24 11:06:30;;;;;;;;;;;;;;;;;;5019292;28;19975;-70
2021/12/24 11:08:56;;;;;;;;;;;;;;;;;;4999418;28;19928;-70
2021/12/24 11:11:22;;;;;;;;;;;;;;;;;;5019510;28;19929;-70
2021/12/24 11:13:48;;;;;;;;;;;;;;;;;;5011860;28;19944;-70
2021/12/24 11:16:14;;;;;;;;;;;;;;;;;;5012438;28;19928;-70
2021/12/24 11:18:41;;;;;;;;;;;;;;;;;;5013045;28;20322;-70
2021/12/24 11:21:07;;;;;;;;;;;;;;;;;;5014539;28;19925;-70
2021/12/24 11:23:33;;;;;;;;;;;;;;;;;;5013548;28;19925;-70
2021/12/24 11:25:59;;;;;;;;;;;;;;;;;;5018133;28;20378;-70
2021/12/24 11:28:25;;;;;;;;;;;;;;;;;;5015929;28;19925;-70
2021/12/24 11:30:52;;;;;;;;;;;;;;;;;;5015166;28;20598;-70
2021/12/24 11:33:18;;;;;;;;;;;;;;;;;;5016466;28;19991;-68
2021/12/24 11:35:44;;;;;;;;;;;;;;;;;;5017820;28;20743;-68
2021/12/24 11:38:10;;;;;;;;;;;;;;;;;;5015279;28;19921;-67
2021/12/24 11:40:36;;;;;;;;;;;;;;;;;;5014267;28;19932;-67
2021/12/24 11:43:04;;;;;;;;;;;;;;;;;;5013561;28;20703;-67
2021/12/24 11:45:30;;;;;;;;;;;;;;;;;;5018133;28;20059;-67
2021/12/24 11:47:56;;;;;;;;;;;;;;;;;;5017507;28;19940;-68
2021/12/24 11:50:22;;;;;;;;;;;;;;;;;;5020153;28;20011;-67
2021/12/24 11:52:48;;;;;;;;;;;;;;;;;;5021716;28;19921;-68
2021/12/24 11:55:14;;;;;;;;;;;;;;;;;;5023415;28;20396;-67
2021/12/24 11:57:47;;;;;;;;;;;;;;;;;;5020293;28;19917;-67
2021/12/24 12:00:13;;;;;;;;;;;;;;;;;;5020500;28;19925;-67
2021/12/24 12:02:41;;;;;;;;;;;;;;;;;;5019729;28;20017;-67
2021/12/24 12:05:07;;;;;;;;;;;;;;;;;;5014459;28;19928;-70
2021/12/24 12:07:33;;;;;;;;;;;;;;;;;;5014306;28;19929;-69
2021/12/24 12:10:03;;;;;;;;;;;;;;;;;;5021097;28;19925;-68
2021/12/24 12:12:29;;;;;;;;;;;;;;;;;;5018933;28;19965;-68
2021/12/24 12:14:55;;;;;;;;;;;;;;;;;;5018431;28;19921;-68
2021/12/24 12:17:21;;;;;;;;;;;;;;;;;;5022233;28;20436;-68
2021/12/24 12:19:49;;;;;;;;;;;;;;;;;;5020944;28;20031;-68
2021/12/24 12:22:18;;;;;;;;;;;;;;;;;;5019664;28;19925;-68
2021/12/24 12:27:10;;;;;;;;;;;;;;;;;;5017684;28;19998;-67
2021/12/24 12:29:36;;;;;;;;;;;;;;;;;;5013504;28;20315;-68
2021/12/24 12:32:02;;;;;;;;;;;;;;;;;;4999690;28;20477;-71
2021/12/24 12:34:28;;;;;;;;;;;;;;;;;;5019672;28;19975;-69
2021/12/24 12:36:54;;;;;;;;;;;;;;;;;;5020814;28;19921;-69
2021/12/24 12:39:20;;;;;;;;;;;;;;;;;;5016307;28;19932;-70
2021/12/24 12:41:46;;;;;;;;;;;;;;;;;;5017934;28;19932;-69
2021/12/24 12:44:15;;;;;;;;;;;;;;;;;;5021133;28;20645;-69
2021/12/24 12:46:41;;;;;;;;;;;;;;;;;;5017588;28;19932;-69
2021/12/24 12:49:07;;;;;;;;;;;;;;;;;;5019063;28;19948;-69
2021/12/24 12:51:33;;;;;;;;;;;;;;;;;;5019072;28;19943;-68
2021/12/24 12:54:00;;;;;;;;;;;;;;;;;;5008409;28;19924;-68
2021/12/24 12:56:27;;;;;;;;;;;;;;;;;;5025788;28;20338;-68
2021/12/24 12:58:53;;;;;;;;;;;;;;;;;;5025848;28;20404;-68
2021/12/24 13:01:19;;;;;;;;;;;;;;;;;;5009105;28;19965;-69
2021/12/24 13:03:45;;;;;;;;;;;;;;;;;;5018932;28;19925;-68
2021/12/24 13:06:13;;;;;;;;;;;;;;;;;;5015619;28;19929;-68
2021/12/24 13:08:39;;;;;;;;;;;;;;;;;;5012710;28;19979;-69
2021/12/24 13:11:05;;;;;;;;;;;;;;;;;;5019517;28;19925;-68
2021/12/24 13:13:31;;;;;;;;;;;;;;;;;;5000606;28;19936;-69
2021/12/24 13:15:57;;;;;;;;;;;;;;;;;;5015199;28;20371;-69
2021/12/24 13:18:27;;;;;;;;;;;;;;;;;;5015528;28;20324;-68
2021/12/24 13:23:29;;;;;;;;;;;;;;;;;;5014230;28;20032;-68
2021/12/24 13:25:55;;;;;;;;;;;;;;;;;;5018098;28;20011;-67
2021/12/24 13:28:21;;;;;;;;;;;;;;;;;;5018920;28;19929;-68
2021/12/24 13:30:47;;;;;;;;;;;;;;;;;;5014372;28;19975;-67
2021/12/24 13:33:13;;;;;;;;;;;;;;;;;;5016382;28;20397;-68
2021/12/24 13:35:39;;;;;;;;;;;;;;;;;;5020345;28;19929;-67
2021/12/24 13:38:05;;;;;;;;;;;;;;;;;;5018414;28;20022;-66
2021/12/24 13:40:31;;;;;;;;;;;;;;;;;;5014471;28;19925;-67
2021/12/24 13:42:57;;;;;;;;;;;;;;;;;;5018403;28;20742;-68
2021/12/24 13:45:24;;;;;;;;;;;;;;;;;;5016846;28;19979;-67
2021/12/24 13:55:32;;;;;;;;;;;;;;;;;;5017419;28;20712;-67
2021/12/24 13:57:58;;;;;;;;;;;;;;;;;;5021316;28;20314;-68
2021/12/24 14:00:24;;;;;;;;;;;;;;;;;;5000330;28;19925;-68
2021/12/24 14:02:50;;;;;;;;;;;;;;;;;;5015241;28;19925;-69
2021/12/24 14:05:18;;;;;;;;;;;;;;;;;;5014299;28;19922;-68
2021/12/24 14:07:46;;;;;;;;;;;;;;;;;;5001113;28;20341;-68
2021/12/24 14:10:12;;;;;;;;;;;;;;;;;;5023804;28;20290;-67
2021/12/24 14:12:38;;;;;;;;;;;;;;;;;;5019165;28;20473;-68
2021/12/24 14:15:09;;;;;;;;;;;;;;;;;;5017871;28;19929;-67
2021/12/24 14:18:04;;;;;;;;;;;;;;;;;;5019438;28;19932;-71
2021/12/24 14:20:58;;;;;;;;;;;;;;;;;;5002595;28;20440;-68
2021/12/24 14:23:16;;;;;;;;;;;;;;;;;;5020801;28;19921;-68
2021/12/24 14:25:42;;;;;;;;;;;;;;;;;;5023475;28;20215;-68
2021/12/24 14:28:08;;;;;;;;;;;;;;;;;;5017142;28;20287;-67
2021/12/24 14:30:34;;;;;;;;;;;;;;;;;;5020858;28;19992;-67
2021/12/24 14:33:00;;;;;;;;;;;;;;;;;;5018869;28;19996;-67
2021/12/24 14:35:26;;;;;;;;;;;;;;;;;;5017009;28;20005;-67
2021/12/24 14:37:52;;;;;;;;;;;;;;;;;;5018074;28;19921;-67
2021/12/24 14:40:18;;;;;;;;;;;;;;;;;;5012930;28;19929;-68
2021/12/24 14:42:51;;;;;;;;;;;;;;;;;;5022990;28;19928;-69
2021/12/24 14:45:17;;;;;;;;;;;;;;;;;;5021889;28;19917;-67
2021/12/24 14:47:43;;;;;;;;;;;;;;;;;;5021178;28;20387;-66
2021/12/24 14:50:09;;;;;;;;;;;;;;;;;;5021429;28;19974;-66
2021/12/24 14:52:35;;;;;;;;;;;;;;;;;;5020218;28;19956;-66
2021/12/24 14:55:01;;;;;;;;;;;;;;;;;;5018597;28;19921;-66
2021/12/24 14:57:27;;;;;;;;;;;;;;;;;;5018790;28;19928;-66
2021/12/24 14:59:53;;;;;;;;;;;;;;;;;;5021011;28;19921;-66
2021/12/24 15:02:19;;;;;;;;;;;;;;;;;;5017299;28;20276;-66
2021/12/24 15:04:45;;;;;;;;;;;;;;;;;;5017288;28;20390;-67
2021/12/24 15:07:11;;;;;;;;;;;;;;;;;;5014144;28;19929;-66
2021/12/24 15:09:39;;;;;;;;;;;;;;;;;;5015909;28;19924;-66
2021/12/24 15:12:05;;;;;;;;;;;;;;;;;;5023842;28;19996;-67
2021/12/24 15:14:31;;;;;;;;;;;;;;;;;;5020852;28;19921;-66
2021/12/24 15:16:57;;;;;;;;;;;;;;;;;;5023135;28;19917;-67
2021/12/24 15:19:23;;;;;;;;;;;;;;;;;;5012203;28;19922;-67
2021/12/24 15:21:49;;;;;;;;;;;;;;;;;;5011518;28;19927;-67
2021/12/24 15:24:16;;;;;;;;;;;;;;;;;;5015695;28;19991;-67
2021/12/24 15:26:42;;;;;;;;;;;;;;;;;;5020604;28;20330;-67
2021/12/24 15:29:08;;;;;;;;;;;;;;;;;;5016612;28;20429;-67
2021/12/24 15:31:34;;;;;;;;;;;;;;;;;;5013374;28;19921;-67
2021/12/24 15:34:00;;;;;;;;;;;;;;;;;;5024730;28;19937;-67
2021/12/24 15:36:26;;;;;;;;;;;;;;;;;;5010345;28;19921;-67
2021/12/24 15:38:52;;;;;;;;;;;;;;;;;;4998725;28;19932;-68
2021/12/24 15:41:18;;;;;;;;;;;;;;;;;;5026862;28;19991;-67
2021/12/24 15:43:44;;;;;;;;;;;;;;;;;;5026376;28;20008;-67
2021/12/24 15:46:10;;;;;;;;;;;;;;;;;;5010794;28;19921;-67
2021/12/24 15:48:36;;;;;;;;;;;;;;;;;;5009640;28;20005;-68
2021/12/24 15:51:05;;;;;;;;;;;;;;;;;;5020999;28;20027;-67
2021/12/24 15:53:30;;;;;;;;;;;;;;;;;;5011400;28;19921;-67
2021/12/24 15:55:57;;;;;;;;;;;;;;;;;;5010289;28;19983;-67
2021/12/24 15:58:23;;;;;;;;;;;;;;;;;;5016096;28;20378;-67
2021/12/24 16:00:50;;;;;;;;;;;;;;;;;;5026804;28;20265;-68
2021/12/24 16:03:16;;;;;;;;;;;;;;;;;;5022587;28;19975;-67
2021/12/24 16:05:42;;;;;;;;;;;;;;;;;;5021711;28;20019;-67
2021/12/24 16:08:09;;;;;;;;;;;;;;;;;;5018496;28;19921;-67
2021/12/24 16:10:35;;;;;;;;;;;;;;;;;;5014449;28;20815;-67
2021/12/24 16:13:01;;;;;;;;;;;;;;;;;;5019554;28;20016;-67
2021/12/24 16:15:27;;;;;;;;;;;;;;;;;;5024562;28;19930;-67
2021/12/24 16:17:53;;;;;;;;;;;;;;;;;;5014175;28;19944;-66
2021/12/24 16:20:19;;;;;;;;;;;;;;;;;;5025239;28;20398;-67
2021/12/24 16:22:45;;;;;;;;;;;;;;;;;;5024480;28;19928;-67
2021/12/24 16:25:11;;;;;;;;;;;;;;;;;;5020023;28;20239;-67
2021/12/24 16:27:37;;;;;;;;;;;;;;;;;;5012029;28;21699;-67
2021/12/24 16:30:03;;;;;;;;;;;;;;;;;;5026377;28;19921;-67
2021/12/24 16:32:29;;;;;;;;;;;;;;;;;;5007509;28;19964;-67
2021/12/24 16:34:55;;;;;;;;;;;;;;;;;;5022546;28;19921;-68
2021/12/24 16:37:22;;;;;;;;;;;;;;;;;;5022102;28;19929;-68
2021/12/24 16:39:48;;;;;;;;;;;;;;;;;;5012814;28;19925;-67
2021/12/24 16:42:14;;;;;;;;;;;;;;;;;;5011226;28;20359;-67
2021/12/24 16:44:40;;;;;;;;;;;;;;;;;;5018700;28;20371;-67
2021/12/24 16:47:06;;;;;;;;;;;;;;;;;;5009907;28;19975;-67
2021/12/24 16:49:32;;;;;;;;;;;;;;;;;;5008137;28;19925;-67
2021/12/24 16:51:58;;;;;;;;;;;;;;;;;;5009325;28;19922;-67
2021/12/24 16:54:24;;;;;;;;;;;;;;;;;;5009797;28;20001;-67
2021/12/24 16:56:50;;;;;;;;;;;;;;;;;;5012434;28;19999;-67
2021/12/24 16:59:19;;;;;;;;;;;;;;;;;;5005807;28;19921;-67
2021/12/24 17:01:45;;;;;;;;;;;;;;;;;;5026153;28;19921;-67
2021/12/24 17:04:12;;;;;;;;;;;;;;;;;;5018157;28;19925;-67
2021/12/24 17:06:38;;;;;;;;;;;;;;;;;;4996061;28;19969;-67
2021/12/24 17:09:04;;;;;;;;;;;;;;;;;;5015858;28;20375;-67
2021/12/24 17:11:31;;;;;;;;;;;;;;;;;;5010628;28;20402;-67
2021/12/24 17:13:57;;;;;;;;;;;;;;;;;;5008564;28;19922;-67
2021/12/24 17:16:23;;;;;;;;;;;;;;;;;;5017019;28;20071;-67
2021/12/24 17:18:49;;;;;;;;;;;;;;;;;;5011615;28;20439;-67
2021/12/24 17:21:15;;;;;;;;;;;;;;;;;;5025003;28;19921;-67
2021/12/24 17:23:43;;;;;;;;;;;;;;;;;;5025043;28;20686;-67
2021/12/24 17:26:09;;;;;;;;;;;;;;;;;;5022207;28;19992;-67
2021/12/24 17:28:35;;;;;;;;;;;;;;;;;;5016430;28;20016;-67
2021/12/24 17:31:01;;;;;;;;;;;;;;;;;;5009288;28;20406;-67
2021/12/24 17:33:27;;;;;;;;;;;;;;;;;;5024546;28;20302;-67
2021/12/24 17:35:53;;;;;;;;;;;;;;;;;;5023511;28;20387;-67
2021/12/24 17:38:19;;;;;;;;;;;;;;;;;;5007997;28;20029;-67
2021/12/24 17:40:47;;;;;;;;;;;;;;;;;;5009243;28;19968;-66
2021/12/24 17:43:14;;;;;;;;;;;;;;;;;;5007386;28;19925;-67
2021/12/24 17:45:40;;;;;;;;;;;;;;;;;;5011151;28;19921;-67
2021/12/24 17:48:06;;;;;;;;;;;;;;;;;;5007340;28;19925;-67
2021/12/24 17:50:32;;;;;;;;;;;;;;;;;;5007153;28;19983;-67
2021/12/24 17:52:58;;;;;;;;;;;;;;;;;;5022273;28;20385;-67
2021/12/24 17:55:24;;;;;;;;;;;;;;;;;;5022832;28;19928;-68
2021/12/24 17:57:50;;;;;;;;;;;;;;;;;;5024417;28;19921;-67
2021/12/24 18:00:16;;;;;;;;;;;;;;;;;;5024510;28;19928;-68
2021/12/24 18:02:42;;;;;;;;;;;;;;;;;;5022218;28;19956;-67
2021/12/24 18:05:08;;;;;;;;;;;;;;;;;;5017024;28;19984;-67
2021/12/24 18:07:34;;;;;;;;;;;;;;;;;;5019200;28;20311;-67
2021/12/24 18:10:00;;;;;;;;;;;;;;;;;;5007405;28;19921;-67
2021/12/24 18:12:29;;;;;;;;;;;;;;;;;;5010161;28;19967;-67
2021/12/24 18:14:55;;;;;;;;;;;;;;;;;;5016024;28;20063;-67
2021/12/24 18:17:21;;;;;;;;;;;;;;;;;;5023812;28;19925;-67
2021/12/24 18:19:47;;;;;;;;;;;;;;;;;;5023786;28;19921;-66
2021/12/24 18:22:13;;;;;;;;;;;;;;;;;;5024857;28;19928;-67
2021/12/24 18:24:39;;;;;;;;;;;;;;;;;;5004385;28;19921;-67